sensor_id;sensor_type;location;lat;lon;timestamp;P1;durP1;ratioP1;P2;durP2;ratioP2
42666;SDS011;28280;49.646;14.130;2023-04-12T00:04:21;2.15;;;1.20;;
42666;SDS011;28280;49.646;14.130;2023-04-12T00:14:48;2.55;;;1.00;;
42666;SDS011;28280;49.646;14.130;2023-04-12T00:25:10;2.45;;;1.10;;
42666;SDS011;28280;49.646;14.130;2023-04-12T00:35:32;2.53;;;1.30;;
42666;SDS011;28280;49.646;14.130;2023-04-12T00:45:53;1.77;;;1.00;;
42666;SDS011;28280;49.646;14.130;2023-04-12T00:56:19;2.80;;;1.07;;
42666;SDS011;28280;49.646;14.130;2023-04-12T01:06:50;1.85;;;1.00;;
42666;SDS011;28280;49.646;14.130;2023-04-12T01:17:31;3.28;;;1.10;;
42666;SDS011;28280;49.646;14.130;2023-04-12T01:28:04;2.03;;;1.23;;
42666;SDS011;28280;49.646;14.130;2023-04-12T01:38:26;1.63;;;1.20;;
42666;SDS011;28280;49.646;14.130;2023-04-12T01:48:49;2.50;;;1.17;;
42666;SDS011;28280;49.646;14.130;2023-04-12T01:59:13;2.38;;;1.20;;
42666;SDS011;28280;49.646;14.130;2023-04-12T02:09:36;1.52;;;1.15;;
42666;SDS011;28280;49.646;14.130;2023-04-12T02:20:00;2.47;;;1.27;;
42666;SDS011;28280;49.646;14.130;2023-04-12T02:30:23;1.95;;;1.15;;
42666;SDS011;28280;49.646;14.130;2023-04-12T02:40:46;2.67;;;1.38;;
42666;SDS011;28280;49.646;14.130;2023-04-12T02:51:10;2.72;;;1.13;;
42666;SDS011;28280;49.646;14.130;2023-04-12T03:01:35;2.15;;;1.13;;
42666;SDS011;28280;49.646;14.130;2023-04-12T03:12:25;1.48;;;0.93;;
42666;SDS011;28280;49.646;14.130;2023-04-12T03:23:05;1.73;;;1.10;;
42666;SDS011;28280;49.646;14.130;2023-04-12T03:33:30;2.55;;;1.13;;
42666;SDS011;28280;49.646;14.130;2023-04-12T03:43:55;2.67;;;1.35;;
42666;SDS011;28280;49.646;14.130;2023-04-12T03:54:18;3.55;;;1.30;;
42666;SDS011;28280;49.646;14.130;2023-04-12T04:04:49;1.55;;;1.30;;
42666;SDS011;28280;49.646;14.130;2023-04-12T04:15:18;2.47;;;1.25;;
42666;SDS011;28280;49.646;14.130;2023-04-12T04:25:40;2.47;;;1.52;;
42666;SDS011;28280;49.646;14.130;2023-04-12T04:36:05;2.20;;;1.30;;
42666;SDS011;28280;49.646;14.130;2023-04-12T04:46:29;2.10;;;1.40;;
42666;SDS011;28280;49.646;14.130;2023-04-12T04:56:52;2.55;;;1.33;;
42666;SDS011;28280;49.646;14.130;2023-04-12T05:07:15;1.88;;;1.42;;
42666;SDS011;28280;49.646;14.130;2023-04-12T05:17:39;2.42;;;1.25;;
42666;SDS011;28280;49.646;14.130;2023-04-12T05:28:01;2.30;;;1.40;;
42666;SDS011;28280;49.646;14.130;2023-04-12T05:38:22;2.88;;;1.10;;
42666;SDS011;28280;49.646;14.130;2023-04-12T05:48:48;2.28;;;1.20;;
42666;SDS011;28280;49.646;14.130;2023-04-12T05:59:09;2.03;;;1.33;;
42666;SDS011;28280;49.646;14.130;2023-04-12T06:09:32;2.33;;;1.02;;
42666;SDS011;28280;49.646;14.130;2023-04-12T06:19:54;1.55;;;1.08;;
42666;SDS011;28280;49.646;14.130;2023-04-12T06:30:15;2.70;;;1.70;;
42666;SDS011;28280;49.646;14.130;2023-04-12T06:40:36;1.70;;;1.10;;
42666;SDS011;28280;49.646;14.130;2023-04-12T06:50:57;2.22;;;1.30;;
42666;SDS011;28280;49.646;14.130;2023-04-12T07:01:19;2.92;;;1.00;;
42666;SDS011;28280;49.646;14.130;2023-04-12T07:11:40;1.48;;;1.08;;
42666;SDS011;28280;49.646;14.130;2023-04-12T07:22:01;1.67;;;1.00;;
42666;SDS011;28280;49.646;14.130;2023-04-12T07:32:22;3.25;;;1.27;;
42666;SDS011;28280;49.646;14.130;2023-04-12T07:42:44;4.15;;;1.40;;
42666;SDS011;28280;49.646;14.130;2023-04-12T08:04:01;4.28;;;1.58;;
42666;SDS011;28280;49.646;14.130;2023-04-12T08:14:24;2.42;;;1.25;;
42666;SDS011;28280;49.646;14.130;2023-04-12T08:24:45;2.60;;;1.30;;
42666;SDS011;28280;49.646;14.130;2023-04-12T08:35:06;2.05;;;1.30;;
42666;SDS011;28280;49.646;14.130;2023-04-12T08:45:29;2.67;;;1.08;;
42666;SDS011;28280;49.646;14.130;2023-04-12T08:55:52;2.92;;;1.20;;
42666;SDS011;28280;49.646;14.130;2023-04-12T09:06:13;3.42;;;1.30;;
42666;SDS011;28280;49.646;14.130;2023-04-12T09:16:39;1.60;;;1.10;;
42666;SDS011;28280;49.646;14.130;2023-04-12T09:27:02;3.60;;;1.50;;
42666;SDS011;28280;49.646;14.130;2023-04-12T09:37:24;2.35;;;1.10;;
42666;SDS011;28280;49.646;14.130;2023-04-12T09:47:46;3.72;;;1.25;;
42666;SDS011;28280;49.646;14.130;2023-04-12T09:58:07;1.65;;;1.17;;
42666;SDS011;28280;49.646;14.130;2023-04-12T10:08:30;3.08;;;1.20;;
42666;SDS011;28280;49.646;14.130;2023-04-12T10:18:51;1.85;;;1.00;;
42666;SDS011;28280;49.646;14.130;2023-04-12T10:29:33;2.65;;;1.10;;
42666;SDS011;28280;49.646;14.130;2023-04-12T10:39:56;2.17;;;1.00;;
42666;SDS011;28280;49.646;14.130;2023-04-12T10:50:19;3.00;;;1.20;;
42666;SDS011;28280;49.646;14.130;2023-04-12T11:11:19;2.65;;;1.17;;
42666;SDS011;28280;49.646;14.130;2023-04-12T11:21:43;1.83;;;1.02;;
42666;SDS011;28280;49.646;14.130;2023-04-12T11:32:04;1.90;;;1.17;;
42666;SDS011;28280;49.646;14.130;2023-04-12T11:42:27;3.25;;;1.10;;
42666;SDS011;28280;49.646;14.130;2023-04-12T11:52:49;2.17;;;1.35;;
42666;SDS011;28280;49.646;14.130;2023-04-12T12:03:10;3.67;;;1.15;;
42666;SDS011;28280;49.646;14.130;2023-04-12T12:13:48;2.65;;;1.20;;
42666;SDS011;28280;49.646;14.130;2023-04-12T12:24:10;2.38;;;1.20;;
42666;SDS011;28280;49.646;14.130;2023-04-12T12:34:34;4.30;;;1.25;;
42666;SDS011;28280;49.646;14.130;2023-04-12T12:44:55;3.72;;;1.30;;
42666;SDS011;28280;49.646;14.130;2023-04-12T12:55:16;1.52;;;1.00;;
42666;SDS011;28280;49.646;14.130;2023-04-12T13:05:38;1.35;;;0.85;;
42666;SDS011;28280;49.646;14.130;2023-04-12T13:15:59;1.52;;;1.02;;
42666;SDS011;28280;49.646;14.130;2023-04-12T13:26:21;3.15;;;1.08;;
42666;SDS011;28280;49.646;14.130;2023-04-12T13:36:45;2.38;;;1.10;;
42666;SDS011;28280;49.646;14.130;2023-04-12T13:47:07;3.53;;;1.20;;
42666;SDS011;28280;49.646;14.130;2023-04-12T13:57:28;1.90;;;1.10;;
42666;SDS011;28280;49.646;14.130;2023-04-12T14:07:49;1.90;;;1.10;;
42666;SDS011;28280;49.646;14.130;2023-04-12T14:18:12;1.77;;;1.10;;
42666;SDS011;28280;49.646;14.130;2023-04-12T14:28:33;1.88;;;1.08;;
42666;SDS011;28280;49.646;14.130;2023-04-12T14:38:55;1.77;;;0.88;;
42666;SDS011;28280;49.646;14.130;2023-04-12T14:49:17;2.60;;;1.20;;
42666;SDS011;28280;49.646;14.130;2023-04-12T14:59:38;2.15;;;0.93;;
42666;SDS011;28280;49.646;14.130;2023-04-12T15:09:59;1.35;;;1.05;;
42666;SDS011;28280;49.646;14.130;2023-04-12T15:20:21;2.03;;;1.27;;
42666;SDS011;28280;49.646;14.130;2023-04-12T15:30:42;3.38;;;1.15;;
42666;SDS011;28280;49.646;14.130;2023-04-12T15:41:04;1.38;;;1.00;;
42666;SDS011;28280;49.646;14.130;2023-04-12T15:51:26;2.95;;;1.08;;
42666;SDS011;28280;49.646;14.130;2023-04-12T16:01:48;2.42;;;1.17;;
42666;SDS011;28280;49.646;14.130;2023-04-12T16:12:10;2.50;;;1.00;;
42666;SDS011;28280;49.646;14.130;2023-04-12T16:22:31;2.30;;;0.98;;
42666;SDS011;28280;49.646;14.130;2023-04-12T16:32:52;2.00;;;1.05;;
42666;SDS011;28280;49.646;14.130;2023-04-12T16:43:15;1.48;;;1.13;;
42666;SDS011;28280;49.646;14.130;2023-04-12T16:53:37;2.17;;;1.10;;
42666;SDS011;28280;49.646;14.130;2023-04-12T17:03:58;2.95;;;1.23;;
42666;SDS011;28280;49.646;14.130;2023-04-12T17:14:20;2.00;;;1.00;;
42666;SDS011;28280;49.646;14.130;2023-04-12T17:24:42;1.40;;;0.95;;
42666;SDS011;28280;49.646;14.130;2023-04-12T17:35:03;1.75;;;1.05;;
42666;SDS011;28280;49.646;14.130;2023-04-12T17:45:27;1.52;;;0.98;;
42666;SDS011;28280;49.646;14.130;2023-04-12T17:55:48;1.55;;;1.00;;
42666;SDS011;28280;49.646;14.130;2023-04-12T18:06:11;1.73;;;1.10;;
42666;SDS011;28280;49.646;14.130;2023-04-12T18:16:33;1.35;;;0.98;;
42666;SDS011;28280;49.646;14.130;2023-04-12T18:26:54;1.85;;;1.25;;
42666;SDS011;28280;49.646;14.130;2023-04-12T18:37:19;2.42;;;1.45;;
42666;SDS011;28280;49.646;14.130;2023-04-12T18:47:40;1.85;;;1.13;;
42666;SDS011;28280;49.646;14.130;2023-04-12T18:58:01;2.08;;;1.30;;
42666;SDS011;28280;49.646;14.130;2023-04-12T19:08:23;3.65;;;1.40;;
42666;SDS011;28280;49.646;14.130;2023-04-12T19:18:45;1.63;;;1.13;;
42666;SDS011;28280;49.646;14.130;2023-04-12T19:29:06;1.75;;;1.27;;
42666;SDS011;28280;49.646;14.130;2023-04-12T19:39:27;1.95;;;1.05;;
42666;SDS011;28280;49.646;14.130;2023-04-12T19:49:49;1.83;;;1.25;;
42666;SDS011;28280;49.646;14.130;2023-04-12T20:00:12;3.53;;;1.20;;
42666;SDS011;28280;49.646;14.130;2023-04-12T20:10:39;1.80;;;1.15;;
42666;SDS011;28280;49.646;14.130;2023-04-12T20:21:00;2.47;;;1.40;;
42666;SDS011;28280;49.646;14.130;2023-04-12T20:31:22;1.95;;;1.50;;
42666;SDS011;28280;49.646;14.130;2023-04-12T20:41:43;2.03;;;1.23;;
42666;SDS011;28280;49.646;14.130;2023-04-12T20:52:09;1.83;;;1.10;;
42666;SDS011;28280;49.646;14.130;2023-04-12T21:02:31;2.03;;;1.40;;
42666;SDS011;28280;49.646;14.130;2023-04-12T21:12:53;3.08;;;1.50;;
42666;SDS011;28280;49.646;14.130;2023-04-12T21:23:15;1.88;;;1.30;;
42666;SDS011;28280;49.646;14.130;2023-04-12T21:33:38;3.40;;;1.85;;
42666;SDS011;28280;49.646;14.130;2023-04-12T21:44:00;2.30;;;1.40;;
42666;SDS011;28280;49.646;14.130;2023-04-12T21:54:21;2.17;;;1.60;;
42666;SDS011;28280;49.646;14.130;2023-04-12T22:04:43;2.05;;;1.48;;
42666;SDS011;28280;49.646;14.130;2023-04-12T22:15:05;2.92;;;1.60;;
42666;SDS011;28280;49.646;14.130;2023-04-12T22:25:28;3.17;;;1.50;;
42666;SDS011;28280;49.646;14.130;2023-04-12T22:35:50;2.60;;;1.58;;
42666;SDS011;28280;49.646;14.130;2023-04-12T22:46:12;2.72;;;1.73;;
42666;SDS011;28280;49.646;14.130;2023-04-12T22:56:38;2.05;;;1.55;;
42666;SDS011;28280;49.646;14.130;2023-04-12T23:07:01;2.80;;;1.60;;
42666;SDS011;28280;49.646;14.130;2023-04-12T23:17:22;3.88;;;1.88;;
42666;SDS011;28280;49.646;14.130;2023-04-12T23:27:43;3.20;;;1.77;;
42666;SDS011;28280;49.646;14.130;2023-04-12T23:38:06;2.85;;;1.90;;
42666;SDS011;28280;49.646;14.130;2023-04-12T23:48:28;2.83;;;1.90;;
42666;SDS011;28280;49.646;14.130;2023-04-12T23:58:50;2.60;;;1.75;;
